Time;durP1;ratioP1;P1;durP2;ratioP2;P2;SDS_P1;SDS_P2;PMS_P1;PMS_P2;Temp;Humidity;BMP_temperature;BMP_pressure;BME280_temperature;BME280_humidity;BME280_pressure;Samples;Min_cycle;Max_cycle;Signal;HPM_P1;HPM_P2
2022/02/03 00:02:23;;;;;;;100.13;30.92;;;7.10;99.90;;;;;;5022926;28;20045;-69
2022/02/03 00:07:25;;;;;;;94.68;30.27;;;7.00;99.90;;;;;;5075087;28;20088;-69
2022/02/03 00:24:14;;;;;;;118.85;33.95;;;7.20;99.90;;;;;;4948339;29;20123;-69
2022/02/03 00:26:54;;;;;;;111.38;35.92;;;7.20;99.90;;;;;;4952938;29;20083;-69
2022/02/03 00:29:42;;;;;;;116.67;33.50;;;7.20;99.90;;;;;;4966103;29;20130;-69
2022/02/03 00:32:15;;;;;;;118.25;33.47;;;7.20;99.90;;;;;;4965900;28;20140;-69
2022/02/03 00:35:06;;;;;;;112.18;34.72;;;7.30;99.90;;;;;;4966470;28;20059;-69
2022/02/03 00:37:46;;;;;;;120.82;33.20;;;7.20;99.90;;;;;;4953957;28;20047;-69
2022/02/03 00:48:33;;;;;;;115.28;33.10;;;7.60;99.90;;;;;;4951368;28;20061;-69
2022/02/03 00:51:00;;;;;;;123.80;34.30;;;7.40;99.90;;;;;;4985109;28;20069;-69
2022/02/03 00:53:27;;;;;;;122.90;33.88;;;7.40;99.90;;;;;;4968663;28;20047;-69
2022/02/03 00:56:01;;;;;;;116.43;34.22;;;7.40;99.90;;;;;;4968881;28;20561;-69
2022/02/03 00:58:29;;;;;;;105.43;32.55;;;7.50;99.90;;;;;;5038819;28;20075;-69
2022/02/03 01:00:58;;;;;;;102.85;30.90;;;7.70;99.90;;;;;;5078489;28;20057;-69
2022/02/03 01:03:29;;;;;;;98.53;30.35;;;7.70;99.90;;;;;;5046072;28;20444;-69
2022/02/03 01:06:01;;;;;;;87.30;29.98;;;7.60;99.90;;;;;;5077777;28;20054;-69
2022/02/03 01:08:28;;;;;;;83.65;27.15;;;7.80;99.90;;;;;;5078676;28;20429;-69
2022/02/03 01:11:06;;;;;;;77.32;25.45;;;7.90;99.90;;;;;;5045056;28;20057;-69
2022/02/03 01:17:00;;;;;;;75.82;25.92;;;7.90;99.90;;;;;;5077945;28;20140;-69
2022/02/03 01:53:34;;;;;;;74.75;23.98;;;8.10;99.90;;;;;;5017369;28;20120;-69
2022/02/03 01:56:11;;;;;;;73.50;23.88;;;8.20;99.90;;;;;;4986371;28;20157;-69
2022/02/03 01:58:58;;;;;;;76.28;24.70;;;8.10;99.90;;;;;;4988402;28;20105;-69
2022/02/03 02:01:27;;;;;;;80.43;26.55;;;8.20;99.90;;;;;;5040226;28;20111;-69
2022/02/03 02:04:34;;;;;;;90.40;27.45;;;8.20;99.90;;;;;;5043809;28;20101;-69
2022/02/03 02:07:27;;;;;;;83.15;28.08;;;8.20;99.90;;;;;;5043302;28;20088;-69
2022/02/03 02:10:51;;;;;;;87.97;28.85;;;8.20;99.90;;;;;;5045122;28;20045;-69
2022/02/03 02:13:10;;;;;;;93.97;30.02;;;8.20;99.90;;;;;;5028166;28;20057;-69
2022/02/03 02:16:13;;;;;;;88.05;29.25;;;8.20;99.90;;;;;;5072683;28;20537;-69
2022/02/03 02:44:19;;;;;;;86.07;31.45;;;8.40;99.90;;;;;;4945358;29;20336;-68
2022/02/03 02:46:51;;;;;;;92.00;30.88;;;8.20;99.90;;;;;;4932296;29;20063;-69
2022/02/03 02:49:49;;;;;;;98.95;32.08;;;8.30;99.90;;;;;;4944111;29;20056;-69
2022/02/03 02:52:22;;;;;;;88.43;30.88;;;8.40;99.90;;;;;;4928238;29;20058;-69
2022/02/03 02:55:17;;;;;;;78.15;32.75;;;8.30;99.90;;;;;;4928617;29;20259;-69
2022/02/03 03:36:37;;;;;;;81.30;35.08;;;8.20;99.90;;;;;;5076158;28;20125;-69
2022/02/03 03:39:04;;;;;;;72.63;33.92;;;8.20;99.90;;;;;;5043482;28;20549;-69
2022/02/03 03:41:34;;;;;;;81.28;36.25;;;8.30;99.90;;;;;;5038860;28;20403;-69
2022/02/03 03:44:03;;;;;;;71.97;32.97;;;8.20;99.90;;;;;;5042321;28;20069;-69
2022/02/03 03:46:34;;;;;;;75.50;34.50;;;8.20;99.90;;;;;;5043340;28;20116;-69
2022/02/03 03:49:06;;;;;;;74.60;32.83;;;8.30;99.90;;;;;;5070852;28;20041;-69
2022/02/03 03:51:47;;;;;;;68.88;32.88;;;8.20;99.90;;;;;;5042312;28;20059;-69
2022/02/03 03:54:33;;;;;;;65.97;32.47;;;8.30;99.90;;;;;;5041722;28;20076;-69
2022/02/03 04:30:16;;;;;;;69.68;34.03;;;8.40;99.90;;;;;;5078264;28;20061;-68
2022/02/03 05:04:23;;;;;;;65.88;36.55;;;8.60;99.90;;;;;;5045846;28;20041;-69
2022/02/03 05:07:28;;;;;;;68.22;35.55;;;8.50;99.90;;;;;;5047100;28;20049;-69
2022/02/03 05:10:16;;;;;;;70.53;37.95;;;8.40;99.90;;;;;;5045104;28;20049;-69
2022/02/03 05:13:15;;;;;;;66.00;34.45;;;8.40;99.90;;;;;;5041888;28;20105;-69
2022/02/03 05:18:58;;;;;;;68.65;37.40;;;8.30;99.90;;;;;;5043758;28;20057;-69
2022/02/03 05:42:36;;;;;;;74.20;37.92;;;8.20;99.90;;;;;;5039073;28;20296;-71
2022/02/03 06:07:18;;;;;;;84.88;41.17;;;8.20;99.90;;;;;;5078835;28;20425;-68
2022/02/03 06:12:54;;;;;;;89.20;42.38;;;8.40;99.90;;;;;;5036782;28;20300;-69
2022/02/03 06:15:33;;;;;;;88.43;40.95;;;8.50;99.90;;;;;;5061395;28;20049;-68
2022/02/03 06:23:45;;;;;;;96.68;45.22;;;8.30;99.90;;;;;;5044339;28;20045;-70
2022/02/03 06:29:05;;;;;;;91.43;39.67;;;8.20;99.90;;;;;;5063331;28;20065;-70
2022/02/03 06:31:39;;;;;;;93.15;42.90;;;8.40;99.90;;;;;;5028139;28;20053;-70
2022/02/03 06:34:06;;;;;;;91.90;44.30;;;8.20;99.90;;;;;;5035716;28;20118;-71
2022/02/03 06:36:33;;;;;;;91.43;43.75;;;8.30;99.90;;;;;;5034038;28;20405;-71
2022/02/03 06:38:58;;;;;;;88.35;43.03;;;8.30;99.90;;;;;;5073981;28;20048;-70
2022/02/03 06:41:24;;;;;;;85.47;44.08;;;8.40;99.90;;;;;;5035052;28;20044;-70
2022/02/03 06:43:50;;;;;;;85.35;41.15;;;8.20;99.90;;;;;;5046308;28;20075;-70
2022/02/03 06:46:16;;;;;;;87.95;42.08;;;8.50;99.90;;;;;;5034466;28;20213;-70
2022/02/03 06:48:48;;;;;;;89.18;42.75;;;8.40;99.90;;;;;;5057260;28;20052;-69
2022/02/03 06:51:25;;;;;;;88.15;42.78;;;8.40;99.90;;;;;;5034066;28;20540;-69
2022/02/03 06:53:56;;;;;;;82.50;41.92;;;8.40;99.90;;;;;;5040990;28;20044;-70
2022/02/03 06:56:34;;;;;;;77.22;41.20;;;8.40;99.90;;;;;;5043095;28;20075;-71
2022/02/03 06:59:02;;;;;;;76.88;40.92;;;8.20;99.90;;;;;;5028178;28;20439;-70
2022/02/03 07:01:40;;;;;;;86.50;41.70;;;8.30;99.90;;;;;;5034437;28;20069;-70
2022/02/03 07:04:16;;;;;;;71.40;39.30;;;8.30;99.90;;;;;;5037051;28;20082;-69
2022/02/03 07:06:42;;;;;;;74.82;39.40;;;8.30;99.90;;;;;;5049210;28;20100;-68
2022/02/03 07:09:09;;;;;;;69.97;38.95;;;8.40;99.90;;;;;;5041036;28;20103;-69
2022/02/03 07:11:38;;;;;;;72.05;38.65;;;8.20;99.90;;;;;;5044660;28;20052;-68
2022/02/03 07:14:06;;;;;;;69.07;37.97;;;8.20;99.90;;;;;;5061243;28;20117;-69
2022/02/03 07:16:35;;;;;;;69.55;35.97;;;8.10;99.90;;;;;;5044615;28;20045;-68
2022/02/03 07:19:01;;;;;;;70.43;36.97;;;8.10;99.90;;;;;;5029103;28;20101;-68
2022/02/03 07:21:27;;;;;;;66.03;36.17;;;8.30;99.90;;;;;;5055573;28;20060;-69
2022/02/03 07:23:53;;;;;;;65.88;33.97;;;8.20;99.90;;;;;;5034497;28;20136;-68
2022/02/03 07:26:18;;;;;;;61.58;34.03;;;8.30;99.90;;;;;;5057351;28;20049;-68
2022/02/03 07:28:44;;;;;;;67.72;35.22;;;8.20;99.90;;;;;;5035000;28;20118;-68
2022/02/03 07:31:10;;;;;;;55.90;32.17;;;8.30;99.90;;;;;;5057238;28;20052;-68
2022/02/03 07:33:35;;;;;;;60.28;32.60;;;8.30;99.90;;;;;;5067022;28;20056;-68
2022/02/03 07:36:01;;;;;;;60.28;33.80;;;8.20;99.90;;;;;;5037805;28;20044;-68
2022/02/03 07:38:27;;;;;;;56.53;30.70;;;8.20;99.90;;;;;;5032634;28;20713;-68
2022/02/03 07:40:53;;;;;;;56.38;29.48;;;8.30;99.90;;;;;;5035628;28;20057;-68
2022/02/03 07:43:21;;;;;;;52.00;28.73;;;8.10;99.90;;;;;;5035244;28;20045;-68
2022/02/03 07:45:47;;;;;;;53.28;30.85;;;8.30;99.90;;;;;;5028189;28;20052;-68
2022/02/03 07:48:12;;;;;;;59.50;30.88;;;8.10;99.90;;;;;;5044795;28;20046;-68
2022/02/03 07:50:38;;;;;;;57.38;30.05;;;8.10;99.90;;;;;;5031297;28;20119;-68
2022/02/03 07:53:04;;;;;;;56.00;29.85;;;8.00;99.90;;;;;;5045565;28;20045;-68
2022/02/03 07:55:30;;;;;;;53.05;28.90;;;8.10;99.90;;;;;;5030538;28;20076;-68
2022/02/03 07:57:55;;;;;;;53.97;27.60;;;8.20;99.90;;;;;;5049659;28;20073;-68
2022/02/03 08:00:24;;;;;;;46.80;27.88;;;8.10;99.90;;;;;;5036763;28;20040;-64
2022/02/03 08:02:50;;;;;;;42.83;26.02;;;8.00;99.90;;;;;;5057829;28;20075;-63
2022/02/03 08:05:18;;;;;;;48.92;26.17;;;8.10;99.90;;;;;;5016543;28;20042;-63
2022/02/03 08:07:48;;;;;;;43.17;24.88;;;8.00;99.90;;;;;;5075775;28;20075;-63
2022/02/03 08:10:29;;;;;;;42.58;24.80;;;8.00;99.90;;;;;;5037646;28;20053;-64
2022/02/03 08:12:55;;;;;;;41.60;24.58;;;8.10;99.90;;;;;;5051110;28;20118;-63
2022/02/03 08:15:24;;;;;;;40.03;22.95;;;8.10;99.90;;;;;;5037676;28;20053;-63
2022/02/03 08:17:51;;;;;;;40.53;21.20;;;8.10;99.90;;;;;;5049000;28;20067;-63
2022/02/03 08:20:19;;;;;;;40.10;22.70;;;8.10;99.90;;;;;;5040860;28;20055;-63
2022/02/03 08:22:53;;;;;;;38.40;21.58;;;8.20;99.90;;;;;;5037676;28;20051;-63
2022/02/03 08:25:26;;;;;;;44.22;23.88;;;8.30;99.90;;;;;;5047298;28;20063;-64
2022/02/03 08:28:04;;;;;;;44.00;22.27;;;8.20;99.90;;;;;;5037365;28;20049;-64
2022/02/03 08:30:47;;;;;;;35.45;20.10;;;8.30;99.90;;;;;;5035987;28;20046;-63
2022/02/03 08:33:20;;;;;;;38.15;22.40;;;8.10;99.90;;;;;;5033087;28;20067;-63
2022/02/03 08:35:49;;;;;;;37.38;21.15;;;8.30;99.90;;;;;;5023662;28;20486;-63
2022/02/03 08:38:20;;;;;;;30.93;19.70;;;8.30;99.90;;;;;;5031283;28;20115;-64
2022/02/03 08:43:13;;;;;;;31.02;17.48;;;8.30;99.90;;;;;;5036111;28;20131;-64
2022/02/03 08:45:41;;;;;;;39.20;18.17;;;8.50;99.90;;;;;;5062611;28;20068;-63
2022/02/03 08:48:07;;;;;;;35.78;19.05;;;8.30;99.90;;;;;;5036627;28;20049;-64
2022/02/03 08:50:34;;;;;;;32.17;16.88;;;8.40;99.90;;;;;;5049362;28;20045;-64
2022/02/03 08:53:08;;;;;;;28.63;16.98;;;8.30;99.90;;;;;;5029196;28;20125;-64
2022/02/03 09:39:02;;;;;;;28.30;16.05;;;8.20;99.90;;;;;;5054867;28;20072;-64
2022/02/03 10:02:20;;;;;;;27.63;17.75;;;8.10;99.90;;;;;;5034502;28;20045;-63
2022/02/03 10:04:53;;;;;;;26.33;17.17;;;8.10;99.90;;;;;;5046035;28;20045;-63
2022/02/03 10:07:30;;;;;;;33.42;17.73;;;7.90;99.90;;;;;;5037379;28;20063;-63
2022/02/03 10:09:58;;;;;;;31.42;17.48;;;7.80;99.90;;;;;;5045743;28;20289;-63
2022/02/03 10:12:35;;;;;;;39.17;19.80;;;7.90;99.90;;;;;;5042433;28;20056;-64
2022/02/03 10:15:02;;;;;;;34.55;20.13;;;7.80;99.90;;;;;;5052701;28;20091;-64
2022/02/03 10:17:37;;;;;;;29.58;17.80;;;7.60;99.90;;;;;;5031428;28;20067;-63
2022/02/03 10:20:08;;;;;;;29.48;19.33;;;7.80;99.90;;;;;;5050266;28;20060;-63
2022/02/03 10:22:47;;;;;;;32.72;19.08;;;7.60;99.90;;;;;;5029830;28;20394;-64
2022/02/03 10:25:17;;;;;;;29.45;18.75;;;7.70;99.90;;;;;;5063417;28;20041;-63
2022/02/03 10:27:49;;;;;;;27.38;19.70;;;7.60;99.90;;;;;;5031068;28;20730;-64
2022/02/03 10:30:27;;;;;;;28.33;19.33;;;7.70;99.90;;;;;;5060735;28;20049;-63
2022/02/03 10:32:54;;;;;;;30.88;18.67;;;7.60;99.90;;;;;;5028958;28;20044;-66
2022/02/03 10:35:46;;;;;;;30.15;18.13;;;7.70;99.90;;;;;;5059565;28;20045;-64
2022/02/03 10:49:26;;;;;;;26.80;17.70;;;7.70;99.90;;;;;;5038211;28;20120;-64
2022/02/03 10:54:36;;;;;;;26.27;17.95;;;8.00;99.90;;;;;;5029488;28;20080;-63
2022/02/03 11:02:48;;;;;;;27.20;16.85;;;7.90;99.90;;;;;;5045946;28;20085;-63
2022/02/03 11:07:53;;;;;;;26.73;17.10;;;7.90;99.90;;;;;;5048710;28;20060;-63
2022/02/03 11:10:35;;;;;;;23.85;16.27;;;8.10;99.90;;;;;;5034231;28;20053;-63
2022/02/03 11:13:02;;;;;;;24.42;16.92;;;7.90;99.90;;;;;;5034292;28;20049;-63
2022/02/03 11:15:30;;;;;;;27.73;17.73;;;7.80;99.90;;;;;;5036620;28;20082;-63
2022/02/03 11:17:59;;;;;;;24.13;15.32;;;8.00;99.90;;;;;;5054552;28;20049;-63
2022/02/03 11:20:30;;;;;;;27.70;17.23;;;8.10;99.90;;;;;;5029890;28;20068;-62
2022/02/03 11:28:38;;;;;;;29.15;17.40;;;8.00;99.90;;;;;;5052123;28;20041;-62
2022/02/03 11:31:59;;;;;;;27.50;17.33;;;8.00;99.90;;;;;;5049808;28;20067;-62
2022/02/03 11:34:34;;;;;;;26.40;17.48;;;8.00;99.90;;;;;;5045721;28;20548;-64
2022/02/03 11:50:27;;;;;;;29.85;17.23;;;7.90;99.90;;;;;;5078717;28;20070;-63
2022/02/03 11:53:42;;;;;;;;;;;8.00;99.90;;;;;;5047241;28;20052;-63
2022/02/03 11:58:59;;;;;;;22.40;14.75;;;7.90;99.90;;;;;;5084454;28;20066;-67
2022/02/03 12:01:44;;;;;;;26.17;15.95;;;8.10;99.90;;;;;;5059897;28;20124;-66
2022/02/03 12:12:43;;;;;;;23.42;14.13;;;7.90;99.90;;;;;;5075457;28;20070;-63
2022/02/03 12:21:00;;;;;;;22.25;14.73;;;8.00;99.90;;;;;;5069959;28;20116;-63
2022/02/03 12:26:37;;;;;;;22.27;14.23;;;8.00;99.90;;;;;;5060732;28;20095;-63
2022/02/03 12:29:23;;;;;;;18.85;13.23;;;8.00;99.90;;;;;;5071558;28;20044;-63
2022/02/03 12:32:08;;;;;;;20.08;13.07;;;7.90;99.90;;;;;;5068871;28;20060;-64
2022/02/03 12:45:18;;;;;;;14.90;11.20;;;7.90;99.90;;;;;;5071162;28;20159;-63
2022/02/03 12:47:50;;;;;;;14.70;10.32;;;7.90;99.90;;;;;;5087005;28;20048;-63
2022/02/03 12:50:41;;;;;;;14.70;10.90;;;7.90;99.90;;;;;;5072422;28;20070;-63
2022/02/03 12:53:08;;;;;;;14.48;10.18;;;8.00;99.90;;;;;;5082459;28;20103;-63
2022/02/03 12:55:42;;;;;;;14.02;10.23;;;7.70;99.90;;;;;;5070786;28;20147;-64
2022/02/03 12:58:14;;;;;;;14.35;10.63;;;7.90;99.90;;;;;;5062113;28;20117;-63
2022/02/03 13:00:52;;;;;;;15.93;10.50;;;7.80;99.90;;;;;;5059007;28;20051;-64
2022/02/03 13:03:19;;;;;;;15.57;10.63;;;7.60;99.90;;;;;;5079538;28;20043;-63
2022/02/03 13:05:53;;;;;;;16.92;11.18;;;7.50;99.90;;;;;;5070507;28;20136;-63
2022/02/03 13:08:21;;;;;;;16.38;11.85;;;7.50;99.90;;;;;;5071852;28;20523;-63
2022/02/03 13:10:52;;;;;;;15.60;11.43;;;7.50;99.90;;;;;;5073656;28;20075;-63
2022/02/03 13:13:37;;;;;;;15.77;11.85;;;7.50;99.90;;;;;;5072329;28;20056;-63
2022/02/03 13:16:10;;;;;;;17.35;10.85;;;7.80;99.90;;;;;;5072887;28;20134;-63
2022/02/03 13:18:43;;;;;;;18.00;12.57;;;7.80;99.90;;;;;;5071253;28;20056;-63
2022/02/03 13:26:59;;;;;;;19.92;13.38;;;7.60;99.90;;;;;;5032839;28;20056;-64
2022/02/03 13:29:42;;;;;;;19.13;12.98;;;7.40;99.90;;;;;;5025150;28;20140;-63
2022/02/03 13:32:12;;;;;;;17.27;12.48;;;7.40;99.90;;;;;;5016389;28;20072;-63
2022/02/03 13:34:46;;;;;;;19.73;13.18;;;7.60;99.90;;;;;;5020876;28;20817;-63
2022/02/03 13:39:46;;;;;;;19.80;12.93;;;7.70;99.90;;;;;;5044387;28;20057;-63
2022/02/03 13:42:13;;;;;;;19.85;12.15;;;7.80;99.90;;;;;;5012522;28;20056;-63
2022/02/03 13:44:42;;;;;;;19.02;13.13;;;7.70;99.90;;;;;;5029193;28;20145;-63
2022/02/03 13:47:23;;;;;;;21.58;13.95;;;7.50;99.90;;;;;;5021466;28;20049;-63
2022/02/03 13:50:20;;;;;;;17.35;12.10;;;7.40;99.90;;;;;;5046525;28;20058;-63
2022/02/03 13:52:51;;;;;;;18.42;12.63;;;7.70;99.90;;;;;;5043972;28;20084;-64
2022/02/03 14:28:34;;;;;;;12.00;9.27;;;7.80;99.90;;;;;;4974852;28;20161;-63
2022/02/03 14:31:04;;;;;;;13.07;8.95;;;7.60;99.90;;;;;;4980935;28;20058;-63
2022/02/03 14:33:35;;;;;;;15.32;8.52;;;7.70;99.90;;;;;;4959014;28;20051;-63
2022/02/03 14:36:10;;;;;;;12.32;8.68;;;7.80;99.90;;;;;;4968360;28;20116;-64
2022/02/03 14:38:45;;;;;;;13.07;9.57;;;7.70;99.90;;;;;;4975975;28;20049;-63
2022/02/03 14:43:40;;;;;;;12.38;9.45;;;7.70;99.90;;;;;;4960274;28;20061;-63
2022/02/03 14:46:11;;;;;;;13.30;9.55;;;7.70;99.90;;;;;;4965203;28;20094;-64
2022/02/03 14:48:38;;;;;;;13.35;9.20;;;7.70;99.90;;;;;;4979874;28;20493;-63
2022/02/03 14:51:06;;;;;;;14.65;9.32;;;7.50;99.90;;;;;;4974046;28;20085;-63
2022/02/03 14:53:49;;;;;;;13.30;9.32;;;7.60;99.90;;;;;;4984072;28;20054;-63
2022/02/03 14:59:01;;;;;;;13.48;10.20;;;7.70;99.90;;;;;;5079373;28;20036;-63
2022/02/03 15:01:28;;;;;;;15.50;11.00;;;7.40;99.90;;;;;;5086713;28;20086;-64
2022/02/03 15:03:57;;;;;;;15.23;10.65;;;7.40;99.90;;;;;;5070777;28;20067;-63
2022/02/03 15:06:23;;;;;;;18.25;11.77;;;7.40;99.90;;;;;;5069960;28;20127;-63
2022/02/03 15:09:13;;;;;;;16.05;11.88;;;7.60;99.90;;;;;;5102270;28;20157;-63
2022/02/03 15:12:05;;;;;;;18.80;11.45;;;7.40;99.90;;;;;;5064358;28;20131;-63
2022/02/03 15:14:25;;;;;;;17.58;12.48;;;7.50;99.90;;;;;;5052996;28;20052;-63
2022/02/03 15:16:52;;;;;;;19.27;12.63;;;7.40;99.90;;;;;;5071678;28;20381;-63
2022/02/03 15:19:17;;;;;;;17.02;12.10;;;7.50;99.90;;;;;;5087685;28;20299;-64
2022/02/03 15:21:43;;;;;;;19.83;12.68;;;7.50;99.90;;;;;;5084297;28;20112;-64
2022/02/03 15:24:09;;;;;;;20.45;13.50;;;7.60;99.90;;;;;;5076419;28;20063;-63
2022/02/03 15:26:35;;;;;;;19.60;13.40;;;7.60;99.90;;;;;;5061352;28;20381;-63
2022/02/03 15:29:01;;;;;;;22.38;13.40;;;7.50;99.90;;;;;;5080006;28;20117;-64
2022/02/03 15:31:31;;;;;;;20.38;14.25;;;7.50;99.90;;;;;;5056148;28;20068;-64
2022/02/03 15:34:04;;;;;;;20.77;14.43;;;7.50;99.90;;;;;;5075202;28;20052;-64
2022/02/03 15:36:32;;;;;;;21.60;13.27;;;7.40;99.90;;;;;;5047544;28;20045;-63
2022/02/03 15:38:58;;;;;;;23.73;14.13;;;7.40;99.90;;;;;;5054609;28;20063;-64
2022/02/03 15:41:28;;;;;;;22.42;14.13;;;7.40;99.90;;;;;;5059246;28;20037;-63
2022/02/03 15:43:57;;;;;;;;;;;7.50;99.90;;;;;;5048792;28;20058;-63
2022/02/03 15:46:24;;;;;;;22.58;13.93;;;7.30;99.90;;;;;;5051252;28;20011;-63
2022/02/03 15:49:00;;;;;;;20.75;14.13;;;7.50;99.90;;;;;;5065391;28;20048;-63
2022/02/03 16:17:45;;;;;;;17.95;12.82;;;7.40;99.90;;;;;;5089269;28;20049;-64
2022/02/03 16:52:59;;;;;;;21.55;15.13;;;7.40;99.90;;;;;;5078991;28;20047;-65
2022/02/03 16:55:30;;;;;;;24.15;15.55;;;7.20;99.90;;;;;;5091950;28;20045;-64
2022/02/03 16:57:57;;;;;;;20.10;14.65;;;7.30;99.90;;;;;;5047454;28;20532;-66
2022/02/03 17:00:24;;;;;;;23.02;14.20;;;7.30;99.90;;;;;;5057515;28;20049;-65
2022/02/03 17:02:51;;;;;;;25.05;14.80;;;7.20;99.90;;;;;;5075455;28;20048;-62
2022/02/03 17:05:17;;;;;;;23.52;15.07;;;7.20;99.90;;;;;;5061065;28;20535;-66
2022/02/03 17:07:43;;;;;;;24.17;15.57;;;7.10;99.90;;;;;;5067453;28;20062;-66
2022/02/03 17:10:09;;;;;;;22.17;14.65;;;7.10;99.90;;;;;;5048690;28;20077;-66
2022/02/03 17:12:35;;;;;;;22.70;14.57;;;7.20;99.90;;;;;;5055839;28;20068;-66
2022/02/03 17:15:01;;;;;;;26.38;15.43;;;7.20;99.90;;;;;;5068319;28;20157;-66
2022/02/03 17:17:27;;;;;;;25.23;15.35;;;7.00;99.90;;;;;;5058782;28;20040;-66
2022/02/03 17:19:52;;;;;;;23.73;15.35;;;7.20;99.90;;;;;;5082078;28;20048;-66
2022/02/03 17:22:25;;;;;;;24.63;15.43;;;7.20;99.90;;;;;;5091012;28;20032;-66
2022/02/03 17:27:28;;;;;;;25.75;15.15;;;7.20;99.90;;;;;;5058693;28;20049;-64
2022/02/03 17:30:20;;;;;;;24.55;15.10;;;7.20;99.90;;;;;;5067972;28;20060;-64
2022/02/03 18:19:57;;;;;;;28.48;18.05;;;7.10;99.90;;;;;;5000198;28;20042;-66
2022/02/03 18:47:16;;;;;;;29.10;18.17;;;7.20;99.90;;;;;;5029878;28;20048;-66
2022/02/03 18:52:11;;;;;;;28.55;18.00;;;7.20;99.90;;;;;;5030606;28;20065;-66
2022/02/03 19:11:23;;;;;;;36.33;20.83;;;7.20;99.90;;;;;;5044701;28;20041;-66
2022/02/03 19:24:34;;;;;;;39.45;20.75;;;7.00;99.90;;;;;;5091698;28;20063;-66
2022/02/03 19:27:22;;;;;;;37.08;19.52;;;7.10;99.90;;;;;;5081950;28;20123;-66
2022/02/03 20:03:22;;;;;;;43.95;23.90;;;7.10;99.90;;;;;;5057254;28;20052;-66
2022/02/03 20:05:45;;;;;;;49.78;25.75;;;7.30;99.90;;;;;;5053625;28;20100;-66
2022/02/03 20:08:32;;;;;;;44.97;23.65;;;7.20;99.90;;;;;;5050969;28;20136;-67
2022/02/03 20:10:58;;;;;;;44.05;24.95;;;7.30;99.90;;;;;;5093171;28;20060;-66
2022/02/03 20:13:23;;;;;;;44.92;24.27;;;7.30;99.90;;;;;;5094508;28;20049;-66
2022/02/03 20:15:49;;;;;;;46.47;24.63;;;7.10;99.90;;;;;;5097613;28;20516;-66
2022/02/03 20:18:17;;;;;;;45.95;26.63;;;7.10;99.90;;;;;;5054789;28;20052;-66
2022/02/03 20:20:44;;;;;;;53.72;26.77;;;7.30;99.90;;;;;;5084176;28;20040;-66
2022/02/03 20:23:14;;;;;;;48.38;26.42;;;7.10;99.90;;;;;;5075646;28;20074;-66
2022/02/03 20:25:42;;;;;;;46.63;25.85;;;7.10;99.90;;;;;;5051740;28;20064;-67
2022/02/03 20:28:09;;;;;;;44.85;25.95;;;7.20;99.90;;;;;;5067586;28;20073;-66
2022/02/03 20:30:35;;;;;;;48.72;25.10;;;7.20;99.90;;;;;;5081069;28;20072;-66
2022/02/03 20:33:01;;;;;;;48.53;26.13;;;7.10;99.90;;;;;;5095049;28;20112;-66
2022/02/03 20:35:27;;;;;;;51.08;26.27;;;7.30;99.90;;;;;;5079508;28;20071;-66
2022/02/03 20:37:53;;;;;;;47.60;24.65;;;7.40;99.90;;;;;;5057900;28;20052;-67
2022/02/03 20:40:19;;;;;;;42.80;24.67;;;7.20;99.90;;;;;;5074473;28;20051;-66
2022/02/03 20:42:45;;;;;;;43.70;25.45;;;7.30;99.90;;;;;;5049384;28;20055;-66
2022/02/03 20:45:11;;;;;;;42.70;24.75;;;7.30;99.90;;;;;;5068386;28;20040;-66
2022/02/03 20:47:37;;;;;;;44.72;25.27;;;7.20;99.90;;;;;;5073857;28;20052;-67
2022/02/03 20:50:09;;;;;;;46.33;26.00;;;7.10;99.90;;;;;;5078880;28;20067;-66
2022/02/03 20:52:36;;;;;;;47.55;26.02;;;7.40;99.90;;;;;;5078746;28;20071;-66
2022/02/03 20:55:02;;;;;;;46.47;25.90;;;7.40;99.90;;;;;;5071555;28;20484;-66
2022/02/03 20:57:28;;;;;;;47.38;27.48;;;7.20;99.90;;;;;;5064459;28;20051;-66
2022/02/03 21:00:04;;;;;;;44.90;25.80;;;7.30;99.90;;;;;;5072675;28;20112;-67
2022/02/03 21:02:46;;;;;;;43.95;24.98;;;7.10;99.90;;;;;;5063094;28;20122;-67
2022/02/03 21:05:13;;;;;;;46.58;25.02;;;7.10;99.90;;;;;;5049621;28;20048;-67
2022/02/03 21:07:41;;;;;;;44.80;26.30;;;7.30;99.90;;;;;;5066822;28;20320;-66
2022/02/03 21:10:11;;;;;;;45.10;24.30;;;7.40;99.90;;;;;;5095904;28;20056;-66
2022/02/03 21:12:37;;;;;;;47.90;25.00;;;7.40;99.90;;;;;;5069373;28;20056;-66
2022/02/03 21:15:05;;;;;;;46.35;25.23;;;7.20;99.90;;;;;;5085190;28;20044;-66
2022/02/03 21:17:32;;;;;;;44.45;24.88;;;7.20;99.90;;;;;;5078933;28;20037;-66
2022/02/03 21:20:07;;;;;;;48.40;25.60;;;7.20;99.90;;;;;;5073492;28;20055;-66
2022/02/03 21:22:37;;;;;;;48.30;26.58;;;7.30;99.90;;;;;;5095318;28;20470;-67
2022/02/03 21:25:58;;;;;;;48.95;27.60;;;7.30;99.90;;;;;;5108519;27;20087;-66
2022/02/03 21:28:12;;;;;;;42.42;24.90;;;7.50;99.90;;;;;;5045192;28;20057;-66
2022/02/03 21:30:38;;;;;;;47.67;28.00;;;7.40;99.90;;;;;;5053428;28;20048;-66
2022/02/03 21:33:08;;;;;;;45.45;26.13;;;7.30;99.90;;;;;;5075879;28;20264;-66
2022/02/03 21:35:34;;;;;;;47.67;27.77;;;7.30;99.90;;;;;;5042224;28;20044;-66
2022/02/03 21:38:00;;;;;;;46.58;27.92;;;7.30;99.90;;;;;;5095821;28;20542;-66
2022/02/03 21:40:26;;;;;;;50.50;27.17;;;7.30;99.90;;;;;;5049233;28;20060;-67
2022/02/03 21:42:52;;;;;;;50.47;27.55;;;7.30;99.90;;;;;;5078969;28;20135;-66
2022/02/03 21:45:22;;;;;;;44.03;26.98;;;7.40;99.90;;;;;;5088938;28;20060;-66
2022/02/03 21:47:48;;;;;;;;;;;7.40;99.90;;;;;;5090355;28;20075;-67
2022/02/03 21:50:14;;;;;;;44.50;27.15;;;7.50;99.90;;;;;;5084795;28;19920;-66
2022/02/03 21:52:46;;;;;;;45.83;26.52;;;7.30;99.90;;;;;;5060133;28;20048;-67
2022/02/03 21:55:12;;;;;;;42.03;24.73;;;7.30;99.90;;;;;;5081567;28;20500;-67
2022/02/03 21:57:41;;;;;;;44.22;26.63;;;7.30;99.90;;;;;;5085089;28;20051;-67
2022/02/03 22:00:09;;;;;;;41.50;25.60;;;7.30;99.90;;;;;;5085162;28;20044;-67
2022/02/03 22:02:35;;;;;;;45.78;27.08;;;7.50;99.90;;;;;;5086718;28;20100;-67
2022/02/03 22:05:02;;;;;;;45.70;25.88;;;7.40;99.90;;;;;;5086353;28;20041;-67
2022/02/03 22:07:28;;;;;;;44.97;27.33;;;7.50;99.90;;;;;;5101375;28;20055;-67
2022/02/03 22:09:54;;;;;;;44.97;25.92;;;7.50;99.90;;;;;;5085561;28;20087;-67
2022/02/03 22:12:19;;;;;;;47.60;25.73;;;7.40;99.90;;;;;;5060640;28;20536;-67
2022/02/03 22:14:45;;;;;;;47.90;26.77;;;7.50;99.90;;;;;;5084927;28;20045;-67
2022/02/03 22:17:11;;;;;;;46.90;26.48;;;7.50;99.90;;;;;;5085582;28;20039;-66
2022/02/03 22:19:42;;;;;;;43.90;24.95;;;7.30;99.90;;;;;;5085906;28;20048;-66
2022/02/03 22:22:37;;;;;;;49.75;28.30;;;7.30;99.90;;;;;;5060734;28;20100;-66
2022/02/03 22:39:01;;;;;;;46.08;27.50;;;7.50;99.90;;;;;;5062087;28;20075;-67
2022/02/03 22:49:00;;;;;;;46.45;28.60;;;7.20;99.90;;;;;;5085689;28;20057;-67
2022/02/03 22:51:26;;;;;;;45.05;27.88;;;7.50;99.90;;;;;;5091383;28;20060;-67
2022/02/03 22:53:52;;;;;;;52.70;28.13;;;7.20;99.90;;;;;;5083887;28;20044;-66
2022/02/03 22:56:18;;;;;;;45.10;27.55;;;7.20;99.90;;;;;;5081724;28;20048;-66
2022/02/03 23:01:33;;;;;;;45.10;26.45;;;7.10;99.90;;;;;;5082756;28;20049;-67
2022/02/03 23:04:00;;;;;;;46.78;28.33;;;7.40;99.90;;;;;;5098824;28;20236;-66
2022/02/03 23:06:26;;;;;;;44.85;28.40;;;7.40;99.90;;;;;;5084239;28;20044;-67
2022/02/03 23:19:14;;;;;;;46.25;28.63;;;7.20;99.90;;;;;;5083844;28;20060;-66
2022/02/03 23:24:07;;;;;;;45.30;27.63;;;7.00;99.90;;;;;;5099407;28;20071;-66
2022/02/03 23:26:33;;;;;;;46.70;27.98;;;7.00;99.90;;;;;;5099660;28;20052;-66
2022/02/03 23:29:05;;;;;;;47.40;29.45;;;7.00;99.90;;;;;;5116585;28;20086;-66
2022/02/03 23:31:37;;;;;;;48.17;27.50;;;7.00;99.90;;;;;;5084043;28;20060;-66
2022/02/03 23:34:03;;;;;;;49.97;29.23;;;6.90;99.90;;;;;;5099049;28;20044;-66
2022/02/03 23:36:29;;;;;;;49.33;29.58;;;7.00;99.90;;;;;;5099121;28;20051;-66
2022/02/03 23:44:44;;;;;;;43.67;26.98;;;7.00;99.90;;;;;;5099386;28;20067;-67
2022/02/03 23:47:56;;;;;;;48.15;28.65;;;7.00;99.90;;;;;;5100658;28;20404;-66
